My Meet Scores
Lena Turek, Oak Lawn Pirouette's Gymnastics - MyMeetScores.com
Top100 | Top Teams | Upcoming Meets | Completed Meets | Latest | Add Scores | Help| Support | Bookmark and Share

Lena Turek, Oak Lawn Pirouette's Gymnastics
Personal Bests
LevelVault BarsBeamFloorAA
49.0008.550 9.2509.15035.325
59.1009.000 9.2259.05035.950
68.6509.325 9.4009.25036.125
78.6259.250 8.6509.32535.250
Meet Scores
Date Meet Team Session Level Division Vault Bars Beam Floor AA
2021-04-09 Illinois Level 7 8 State Championships Oak Lawn Pirouettes Gymnastics 2 7 Jr D 8.625 25 8.375 25 8.300 27 8.300 30 33.600 29
2021-02-26 Kinetic Classic 2021 Oak Lawn Pirouette's Gymnastics 13 7 Younger 8.600 24T 9.250 13 8.075 23 9.325 13 35.250 24
2021-02-19 BIG Classic 2021 Oak Lawn Pirouette's Gymnastics 8A 7 Junior B 8.275 11T 9.100 5 8.650 8 9.025 9 35.050 7T
2020-02-14 Midwest Open Oak Lawn Pirouette's Gymnastics 07B 6 Junior A 8.400 15 9.050 3 9.300 7 9.225 13 35.975 8
2020-01-31 Big Chill Oak Lawn Pirouette's Gymnastics 1 6 11 8.650 3 9.325 1 8.675 9 9.050 10 35.700 4
2020-01-24 Uga Invitational Oak Lawn Pirouette's Gymnastics 6A 6 Jr B 8.475 14 9.125 5 9.400 5 9.125 11T 36.125 9
2020-01-10 St Jude Benefit Meet Oak Lawn Pirouette's Gymnastics 2B 6 Jr B 8.150 18 8.800 8T 8.900 7 9.250 7T 35.100 12
2019-12-20 2019 Women's Hawaiian Pineapple Classic Oak Lawn Pirouette's Gymnastics 3A 6 Age 11 8.475 11 8.200 9 8.950 5 9.225 8 34.850 8
2019-11-08 Illinois Judges Cup Oak Lawn Pirouette's Gymnastics P1 6 All Ages 8.450 42T 8.575 20T 8.450 39 8.825 42 34.300 34T
2019-03-22 Illinois Gymnastics State Championships Oak Lawn Pirouette's Gymnastics 2 5 JR C 9.100 18T 8.650 21 9.175 8T 9.025 23 35.950 17
2019-02-23 Kinetic Classic 2019 Oak Lawn Pirouette's Gymnastics 1 5 Younger 8.775 5 8.225 18 8.700 16 8.350 16 34.050 17
2019-02-01 The Big Chill Oak Lawn Pirouette's Gymnastics 1 5 10 yr olds 0.000 6 8.775 2 8.375 5 8.975 2 34.500 1
2019-01-25 UGA Invitational Oak Lawn Pirouette's Gymnastics A09 5 Jr B 8.450 12T 9.000 9 9.225 2T 8.575 7 35.250 6
2019-01-11 St Jude Benefit Meet Oak Lawn Pirouette's Gymnastics 8A 5 Jr B 8.500 16 8.625 6 8.525 8 8.725 15 34.375 10T
2018-12-14 Hawaiian Pineapple Classic Oak Lawn Pirouette's Gymnastics 4B 5 Age10 8.300 11 8.325 10 8.225 11 9.050 2T 33.900 7
2018-03-08 Level 4 & 5 State Oak Lawn Pirouette's Gymnastics All 4 Ch F 8.625 22T 8.550 20 9.025 18T 9.125 13T 35.325 21
2018-02-17 Women's Midwest Open Oak Lawn Pirouette's Gymnastics 14 4 Jr B 9.000 5 8.375 13 8.575 6 8.950 6 34.900 7
2018-02-01 The Big Chill Oak Lawn Pirouette's Gymnastics 4 4 9 yr olds 8.300 7T 8.400 9T 8.850 7T 9.150 2 34.700 5
2018-01-26 2018 UGA Classic Oak Lawn Pirouette's Gymnastics AA1 4 Jr B 8.200 15 8.300 10 9.250 13 9.100 5 34.850 11
2017-12-14 2017 Women's Hawaiian Pineapple Classic Oak Lawn Pirouette's Gymnastics 6A 4 Age9 7.550 19T 7.900 17T 7.525 18 8.675 9 31.650 16
2017-11-10 Illinois NAWGJ Judges Cup 2017 Oak Lawn Pirouette's Gymnastics G2 4 All Ages 7.975 56 8.050 45T 7.850 49 8.150 45T 32.025 48
Get your scores on
a t-shirt, pin, or hoodie